Time;durP1;ratioP1;P1;durP2;ratioP2;P2;SDS_P1;SDS_P2;PMS_P1;PMS_P2;Temp;Humidity;BMP_temperature;BMP_pressure;BME280_temperature;BME280_humidity;BME280_pressure;Samples;Min_cycle;Max_cycle;Signal;HPM_P1;HPM_P2
2023/09/01 00:02:17;;;;;;;4.93;3.80;;;10.00;99.90;9.30;99736;;;;576987;249;24146;-76
2023/09/01 00:04:44;;;;;;;6.30;3.57;;;10.00;99.90;9.30;99735;;;;570435;252;24143;-76
2023/09/01 00:07:14;;;;;;;4.30;3.80;;;9.90;99.90;9.30;99742;;;;577124;249;24102;-76
2023/09/01 00:09:42;;;;;;;4.27;3.87;;;9.90;99.90;9.20;99751;;;;576929;249;24124;-77
2023/09/01 00:12:09;;;;;;;4.03;3.73;;;9.90;99.90;9.20;99748;;;;576858;249;24092;-76
2023/09/01 00:14:41;;;;;;;4.40;4.00;;;9.90;99.90;9.20;99742;;;;577409;249;24089;-77
2023/09/01 00:17:09;;;;;;;5.03;4.17;;;9.90;99.90;9.20;99739;;;;576999;249;24106;-77
2023/09/01 00:19:33;;;;;;;4.40;3.97;;;9.90;99.90;9.20;99747;;;;577967;245;24118;-77
2023/09/01 00:22:05;;;;;;;5.43;3.77;;;9.90;99.90;9.20;99735;;;;578194;248;24140;-77
2023/09/01 00:24:36;;;;;;;3.87;3.57;;;9.90;99.90;9.20;99730;;;;578108;248;24153;-77
2023/09/01 00:27:03;;;;;;;4.27;3.93;;;9.90;99.90;9.20;99729;;;;577917;245;24067;-80
2023/09/01 00:29:34;;;;;;;5.03;3.67;;;9.90;99.90;9.20;99722;;;;578026;245;24068;-77
2023/09/01 00:32:02;;;;;;;6.23;2.87;;;9.90;99.90;9.20;99727;;;;577862;248;24091;-77
2023/09/01 00:34:26;;;;;;;3.13;2.83;;;9.90;99.90;9.10;99725;;;;577886;246;25173;-78
2023/09/01 00:36:54;;;;;;;3.23;2.90;;;9.80;99.90;9.10;99723;;;;578256;249;24098;-77
2023/09/01 00:39:22;;;;;;;2.93;2.73;;;9.80;99.90;9.10;99715;;;;577998;249;24122;-77
2023/09/01 00:41:49;;;;;;;4.17;2.93;;;9.80;99.90;9.10;99725;;;;577603;249;24099;-77
2023/09/01 00:44:18;;;;;;;3.90;2.70;;;9.80;99.90;9.10;99718;;;;578442;247;24143;-75
2023/09/01 00:46:46;;;;;;;5.97;3.43;;;9.80;99.90;9.10;99725;;;;578021;249;24092;-79
2023/09/01 00:49:15;;;;;;;4.87;3.10;;;9.80;99.90;9.10;99721;;;;577910;249;24117;-76
2023/09/01 00:51:46;;;;;;;2.60;2.40;;;9.80;99.90;9.10;99729;;;;577389;249;24094;-76
2023/09/01 00:54:10;;;;;;;4.00;3.23;;;9.80;99.90;9.10;99725;;;;576913;249;24105;-76
2023/09/01 00:56:37;;;;;;;3.33;2.80;;;9.80;99.90;9.10;99726;;;;577075;249;24141;-76
2023/09/01 00:59:05;;;;;;;3.13;2.73;;;9.80;99.90;9.10;99728;;;;577043;249;24169;-76
2023/09/01 01:01:33;;;;;;;3.37;3.07;;;9.70;99.90;9.00;99713;;;;577016;249;24088;-76
2023/09/01 01:04:07;;;;;;;3.10;2.90;;;9.70;99.90;9.00;99731;;;;577038;247;24092;-77
2023/09/01 01:06:36;;;;;;;4.07;3.10;;;9.70;99.90;9.10;99713;;;;576776;249;24106;-79
2023/09/01 01:09:25;;;;;;;5.53;3.23;;;9.70;99.90;9.10;99722;;;;577128;245;24106;-76
2023/09/01 01:12:08;;;;;;;5.15;4.05;;;9.70;99.90;9.10;99721;;;;571818;249;35123;-77
2023/09/01 01:14:45;;;;;;;4.27;3.07;;;9.70;99.90;9.10;99717;;;;570762;252;24166;-77
2023/09/01 01:17:16;;;;;;;5.83;2.70;;;9.80;99.90;9.10;99713;;;;576980;249;24099;-78
2023/09/01 01:19:55;;;;;;;2.77;2.47;;;9.80;99.90;9.00;99715;;;;576790;245;24151;-77
2023/09/01 01:22:42;;;;;;;3.20;3.00;;;9.80;99.90;9.00;99721;;;;571677;246;24124;-77
2023/09/01 01:25:09;;;;;;;2.73;2.57;;;9.70;99.90;9.10;99720;;;;576618;246;24086;-77
2023/09/01 01:27:36;;;;;;;4.87;3.50;;;9.70;99.90;9.00;99709;;;;576829;249;24112;-78
2023/09/01 01:30:07;;;;;;;4.93;3.00;;;9.70;99.90;9.00;99709;;;;576909;249;24111;-75
2023/09/01 01:32:39;;;;;;;4.17;3.77;;;9.70;99.90;9.00;99713;;;;578656;248;24126;-77
2023/09/01 01:35:18;;;;;;;9.40;4.43;;;9.70;99.90;9.00;99725;;;;577794;244;24149;-78
2023/09/01 01:37:50;;;;;;;9.33;4.50;;;9.70;99.90;9.00;99734;;;;577589;245;24155;-78
2023/09/01 01:40:18;;;;;;;5.37;4.27;;;9.70;99.90;9.00;99733;;;;577681;248;24112;-80
2023/09/01 01:42:48;;;;;;;5.63;4.83;;;9.70;99.90;9.00;99734;;;;577475;245;24098;-78
2023/09/01 01:45:13;;;;;;;5.83;4.93;;;9.70;99.90;9.00;99726;;;;577615;246;24110;-77
2023/09/01 01:47:45;;;;;;;6.57;4.17;;;9.70;99.90;9.00;99725;;;;577568;245;24100;-78
2023/09/01 01:50:09;;;;;;;4.40;4.10;;;9.70;99.90;9.00;99722;;;;577239;249;24102;-81
2023/09/01 01:52:41;;;;;;;7.07;5.40;;;9.70;99.90;9.00;99724;;;;577448;249;24127;-77
2023/09/01 01:55:07;;;;;;;7.97;4.37;;;9.70;99.90;9.00;99731;;;;577189;249;24072;-78
2023/09/01 01:57:37;;;;;;;4.87;4.33;;;9.70;99.90;9.00;99730;;;;577437;245;24107;-78
2023/09/01 02:00:02;;;;;;;5.27;4.77;;;9.60;99.90;8.90;99736;;;;577257;249;24086;-77
2023/09/01 02:02:32;;;;;;;5.23;4.83;;;9.60;99.90;8.90;99738;;;;578225;249;24153;-82
2023/09/01 02:04:57;;;;;;;6.27;4.40;;;9.60;99.90;8.90;99735;;;;578459;245;24100;-78
2023/09/01 02:07:25;;;;;;;4.43;4.03;;;9.60;99.90;8.90;99729;;;;571989;252;24164;-81
2023/09/01 02:09:53;;;;;;;5.37;4.60;;;9.60;99.90;8.90;99730;;;;578271;249;24129;-81
2023/09/01 02:12:21;;;;;;;5.37;4.97;;;9.60;99.90;8.90;99734;;;;578517;249;24107;-83
2023/09/01 02:14:49;;;;;;;5.43;4.60;;;9.60;99.90;8.90;99730;;;;578451;249;24073;-78
2023/09/01 02:17:18;;;;;;;4.47;4.17;;;9.60;99.90;8.90;99737;;;;578815;249;24122;-79
2023/09/01 02:19:49;;;;;;;6.60;4.40;;;9.60;99.90;8.90;99733;;;;578493;249;24158;-83
2023/09/01 02:22:14;;;;;;;5.63;5.13;;;9.60;99.90;8.90;99740;;;;571314;252;24124;-77
2023/09/01 02:24:42;;;;;;;5.83;5.20;;;9.60;99.90;9.00;99740;;;;578295;249;24123;-83
2023/09/01 02:27:13;;;;;;;5.30;3.90;;;9.60;99.90;9.00;99743;;;;578345;247;24098;-79
2023/09/01 02:29:37;;;;;;;4.43;4.03;;;9.60;99.90;9.00;99748;;;;577715;246;24102;-77
2023/09/01 02:32:05;;;;;;;5.80;4.40;;;9.60;99.90;9.00;99750;;;;578056;249;24086;-79
2023/09/01 02:34:33;;;;;;;8.03;4.50;;;9.60;99.90;9.00;99752;;;;577629;247;24080;-80
2023/09/01 02:37:01;;;;;;;5.37;4.53;;;9.60;99.90;9.00;99760;;;;577740;247;24131;-81
2023/09/01 02:39:29;;;;;;;4.33;3.93;;;9.60;99.90;9.00;99759;;;;577621;249;24141;-79
2023/09/01 02:41:58;;;;;;;6.10;3.97;;;9.70;99.90;9.10;99756;;;;577907;247;24084;-77
2023/09/01 02:44:24;;;;;;;7.33;4.37;;;9.70;99.90;9.20;99755;;;;578664;245;24095;-82
2023/09/01 02:46:55;;;;;;;4.93;4.27;;;9.80;99.90;9.20;99759;;;;578903;248;24118;-78
2023/09/01 02:49:20;;;;;;;4.83;3.97;;;9.80;99.90;9.20;99755;;;;577156;248;24189;-77
2023/09/01 02:51:48;;;;;;;5.67;4.80;;;9.80;99.90;9.20;99755;;;;570822;251;24173;-80
2023/09/01 02:54:16;;;;;;;8.07;4.77;;;9.80;99.90;9.20;99768;;;;577508;246;24145;-79
2023/09/01 02:56:44;;;;;;;5.73;4.30;;;9.80;99.90;9.20;99761;;;;578057;248;24110;-78
2023/09/01 02:59:12;;;;;;;4.07;3.67;;;9.80;99.90;9.20;99762;;;;578138;248;24120;-80
2023/09/01 03:01:39;;;;;;;5.30;4.37;;;9.80;99.90;9.20;99759;;;;577726;249;24118;-78
2023/09/01 03:04:07;;;;;;;5.97;4.60;;;9.80;99.90;9.30;99762;;;;577896;249;24094;-77
2023/09/01 03:06:35;;;;;;;6.50;4.77;;;9.80;99.90;9.40;99771;;;;578315;249;24181;-83
2023/09/01 03:09:04;;;;;;;11.63;4.73;;;9.90;99.90;9.50;99771;;;;578372;249;24056;-82
2023/09/01 03:11:31;;;;;;;6.00;4.73;;;10.10;99.90;9.60;99780;;;;578491;245;24148;-81
2023/09/01 03:13:59;;;;;;;8.10;5.37;;;10.20;99.90;9.80;99768;;;;572100;252;24142;-81
2023/09/01 03:16:28;;;;;;;5.23;4.30;;;10.40;99.90;9.90;99753;;;;571802;252;24164;-83
2023/09/01 03:18:59;;;;;;;5.33;4.77;;;10.40;99.90;9.90;99752;;;;578755;242;24091;-82
2023/09/01 03:21:23;;;;;;;7.13;5.50;;;10.50;99.90;9.90;99753;;;;578279;245;24098;-83
2023/09/01 03:23:52;;;;;;;5.97;5.30;;;10.50;99.90;9.90;99751;;;;578496;249;24084;-79
2023/09/01 03:26:22;;;;;;;7.03;5.50;;;10.50;99.90;9.90;99750;;;;578791;245;24118;-79
2023/09/01 03:28:47;;;;;;;8.33;5.67;;;10.60;99.90;9.90;99748;;;;578093;245;24261;-84
2023/09/01 03:31:15;;;;;;;6.27;5.43;;;10.50;99.90;9.90;99743;;;;578201;249;24167;-83
2023/09/01 03:33:45;;;;;;;6.20;5.43;;;10.50;99.90;9.90;99737;;;;578402;249;24117;-84
2023/09/01 03:36:10;;;;;;;6.93;5.43;;;10.50;99.90;9.90;99736;;;;578795;245;24096;-82
2023/09/01 03:38:39;;;;;;;6.67;5.70;;;10.50;99.90;10.00;99737;;;;578689;249;24108;-77
2023/09/01 03:41:07;;;;;;;6.37;5.77;;;10.50;99.90;10.00;99749;;;;578281;249;24168;-79
2023/09/01 03:43:35;;;;;;;6.10;5.50;;;10.60;99.90;10.00;99746;;;;578173;249;24098;-77
2023/09/01 03:46:04;;;;;;;6.30;5.70;;;10.60;99.90;10.00;99746;;;;577901;249;24111;-78
2023/09/01 03:48:35;;;;;;;9.50;6.50;;;10.60;99.90;10.00;99744;;;;577816;249;25266;-78
2023/09/01 03:51:14;;;;;;;7.30;6.30;;;10.60;99.90;10.00;99747;;;;577529;245;24085;-80
2023/09/01 03:53:46;;;;;;;8.83;5.73;;;10.60;99.90;10.00;99746;;;;578004;247;24110;-83
2023/09/01 03:56:10;;;;;;;6.87;6.17;;;10.60;99.90;10.10;99753;;;;577786;245;24093;-78
2023/09/01 03:58:38;;;;;;;10.87;6.70;;;10.70;99.90;10.10;99755;;;;578225;248;24075;-79
2023/09/01 04:01:08;;;;;;;7.03;6.33;;;10.70;99.90;10.10;99753;;;;578479;248;24091;-77
2023/09/01 04:03:34;;;;;;;7.40;6.63;;;10.70;99.90;10.10;99753;;;;571495;251;24162;-76
2023/09/01 04:06:05;;;;;;;9.27;6.80;;;10.70;99.90;10.10;99745;;;;571227;251;24123;-76
2023/09/01 04:08:29;;;;;;;8.43;6.87;;;10.70;99.90;10.10;99746;;;;577906;244;24098;-78
2023/09/01 04:10:57;;;;;;;7.50;6.80;;;10.70;99.90;10.20;99743;;;;578415;248;24117;-77
2023/09/01 04:13:29;;;;;;;10.43;6.17;;;10.70;99.90;10.10;99749;;;;578209;248;24128;-76
2023/09/01 04:15:55;;;;;;;9.27;6.30;;;10.70;99.90;10.10;99741;;;;578063;249;24120;-76
2023/09/01 04:18:22;;;;;;;7.13;6.37;;;10.70;99.90;10.10;99748;;;;578176;245;24108;-78
2023/09/01 04:20:53;;;;;;;8.93;6.33;;;10.70;99.90;10.10;99748;;;;577931;249;24094;-76
2023/09/01 04:23:20;;;;;;;5.70;5.20;;;10.70;99.90;10.10;99750;;;;571026;252;24116;-76
2023/09/01 04:25:48;;;;;;;8.23;6.07;;;10.70;99.90;10.10;99741;;;;570976;252;24132;-77
2023/09/01 04:28:20;;;;;;;6.37;5.77;;;10.70;99.90;10.10;99752;;;;577842;249;24105;-77
2023/09/01 04:30:47;;;;;;;6.33;5.73;;;10.70;99.90;10.10;99747;;;;577375;244;24138;-77
2023/09/01 04:33:12;;;;;;;6.47;5.73;;;10.70;99.90;10.10;99750;;;;570741;252;24117;-78
2023/09/01 04:35:43;;;;;;;6.87;5.57;;;10.70;99.90;10.10;99747;;;;571001;252;24117;-82
2023/09/01 04:38:07;;;;;;;6.73;6.03;;;10.70;99.90;10.20;99751;;;;570543;252;24159;-79
2023/09/01 04:40:35;;;;;;;11.67;6.30;;;10.70;99.90;10.20;99756;;;;577664;249;24143;-77
2023/09/01 04:43:07;;;;;;;6.17;5.63;;;10.80;99.90;10.30;99765;;;;577576;249;24132;-78
2023/09/01 04:45:35;;;;;;;9.73;6.10;;;10.80;99.90;10.30;99757;;;;577291;244;24073;-77
2023/09/01 04:47:59;;;;;;;6.70;5.83;;;10.90;99.90;10.40;99759;;;;560738;252;24123;-78
2023/09/01 04:50:27;;;;;;;5.63;5.10;;;10.90;99.90;10.50;99758;;;;567344;249;24078;-78
2023/09/01 04:52:55;;;;;;;7.30;4.83;;;11.00;99.90;10.50;99752;;;;567797;249;24064;-77
2023/09/01 04:55:23;;;;;;;5.57;5.07;;;11.10;99.90;10.70;99763;;;;567768;249;24094;-78
2023/09/01 04:57:51;;;;;;;8.10;5.83;;;12.10;99.90;11.70;99767;;;;567780;249;24061;-78
2023/09/01 05:00:20;;;;;;;8.60;6.47;;;12.10;99.90;13.10;99779;;;;568091;249;24061;-77
2023/09/01 05:02:47;;;;;;;8.30;6.70;;;13.40;99.90;14.30;99766;;;;560768;252;24158;-78
2023/09/01 05:05:15;;;;;;;6.47;5.87;;;14.60;99.90;15.50;99777;;;;568095;247;24136;-77
2023/09/01 05:07:43;;;;;;;7.00;6.30;;;15.80;99.90;16.60;99778;;;;569224;248;24174;-78
2023/09/01 05:10:11;;;;;;;6.13;5.60;;;17.00;99.90;17.50;99775;;;;569375;248;24063;-77
2023/09/01 05:12:39;;;;;;;4.30;4.00;;;18.00;99.90;18.60;99780;;;;562054;251;24100;-77
2023/09/01 05:15:07;;;;;;;3.37;3.17;;;19.10;99.90;19.70;99781;;;;568949;248;24062;-77
2023/09/01 05:17:35;;;;;;;3.23;3.03;;;20.20;99.90;20.50;99780;;;;568675;248;24079;-79
2023/09/01 05:20:07;;;;;;;2.60;2.50;;;21.10;99.90;21.30;99772;;;;568740;248;24086;-79
2023/09/01 05:22:31;;;;;;;2.80;2.60;;;21.80;99.90;22.00;99763;;;;568789;248;24117;-77
2023/09/01 05:24:59;;;;;;;2.70;2.50;;;22.60;99.90;22.60;99754;;;;568935;249;24053;-77
2023/09/01 05:27:27;;;;;;;2.80;1.83;;;23.20;99.90;23.20;99754;;;;570136;252;24147;-76
2023/09/01 05:29:55;;;;;;;2.60;2.40;;;23.80;99.90;23.90;99758;;;;567520;249;23112;-78
2023/09/01 05:32:23;;;;;;;3.10;2.25;;;24.50;99.90;24.60;99750;;;;563307;249;35079;-78
2023/09/01 05:34:51;;;;;;;2.00;1.90;;;25.10;99.90;25.20;99760;;;;568611;249;23113;-78
2023/09/01 05:37:19;;;;;;;2.10;2.00;;;25.80;99.90;26.00;99764;;;;568601;249;23089;-78
2023/09/01 05:39:47;;;;;;;2.50;2.30;;;26.50;99.90;26.70;99766;;;;568534;249;24064;-78
2023/09/01 05:42:17;;;;;;;3.87;2.00;;;27.80;94.60;27.30;99770;;;;567783;249;23132;-77
2023/09/01 05:44:45;;;;;;;2.20;2.10;;;27.70;94.50;27.50;99772;;;;567947;249;23113;-78
2023/09/01 05:47:14;;;;;;;2.58;2.28;;;28.40;90.10;27.80;99775;;;;567952;249;23146;-78
2023/09/01 05:49:42;;;;;;;2.37;2.17;;;28.30;90.00;27.90;99778;;;;567982;249;24092;-78
2023/09/01 05:52:13;;;;;;;2.17;2.08;;;28.60;86.30;28.10;99779;;;;567839;249;23146;-81
2023/09/01 05:54:37;;;;;;;2.00;1.90;;;28.70;84.80;27.70;99780;;;;568598;251;24140;-80
2023/09/01 05:57:05;;;;;;;3.28;2.47;;;28.40;81.90;28.00;99778;;;;567582;249;23172;-82
2023/09/01 05:59:33;;;;;;;2.17;1.70;;;28.50;82.50;28.60;99784;;;;567498;249;23145;-77
2023/09/01 06:02:02;;;;;;;3.65;2.40;;;29.60;77.60;29.30;99788;;;;567456;249;24175;-83
2023/09/01 06:04:31;;;;;;;5.00;2.33;;;29.90;75.90;29.40;99789;;;;568507;249;24071;-81
2023/09/01 06:06:59;;;;;;;2.22;2.05;;;29.90;75.90;28.80;99790;;;;568515;249;23078;-80
2023/09/01 06:09:26;;;;;;;3.87;2.22;;;29.50;74.60;28.10;99792;;;;568615;249;23127;-77
2023/09/01 06:11:54;;;;;;;3.85;2.00;;;28.80;75.30;27.30;99788;;;;568222;249;23079;-78
2023/09/01 06:14:22;;;;;;;1.83;1.65;;;28.10;75.80;27.40;99790;;;;568164;249;23125;-77
2023/09/01 06:16:51;;;;;;;2.30;2.10;;;27.90;78.40;28.30;99797;;;;568674;247;24073;-79
2023/09/01 06:19:18;;;;;;;1.67;1.58;;;28.60;76.50;28.40;99801;;;;562569;251;23151;-78
2023/09/01 06:21:46;;;;;;;2.95;2.25;;;28.90;74.40;27.60;99796;;;;568723;248;23100;-79
2023/09/01 06:24:14;;;;;;;2.75;1.92;;;28.20;74.60;27.80;99797;;;;568560;248;24099;-80
2023/09/01 06:26:45;;;;;;;2.30;2.10;;;28.20;76.00;28.90;99807;;;;568401;248;24110;-81
2023/09/01 06:29:10;;;;;;;4.12;2.05;;;29.00;75.10;30.40;99809;;;;561359;251;23183;-77
2023/09/01 06:31:38;;;;;;;2.47;2.10;;;30.30;71.70;31.50;99811;;;;568323;248;23101;-81
2023/09/01 06:34:06;;;;;;;3.78;2.25;;;31.60;68.90;30.90;99825;;;;568728;248;23168;-78
2023/09/01 06:36:34;;;;;;;3.25;2.00;;;30.70;67.50;30.00;99820;;;;567721;249;23084;-80
2023/09/01 06:39:02;;;;;;;2.12;2.03;;;30.70;67.50;29.20;99825;;;;567622;249;23118;-82
2023/09/01 06:41:33;;;;;;;1.90;1.80;;;29.90;68.20;28.50;99823;;;;567583;249;23108;-78
2023/09/01 06:43:58;;;;;;;2.67;2.10;;;29.10;69.10;27.80;99823;;;;568914;248;23127;-81
2023/09/01 06:46:29;;;;;;;4.70;2.08;;;28.40;71.20;26.90;99830;;;;567600;249;24095;-78
2023/09/01 06:48:57;;;;;;;2.15;1.95;;;27.60;73.00;25.80;99830;;;;560532;252;23152;-78
2023/09/01 06:51:22;;;;;;;2.43;1.97;;;26.60;75.10;25.70;99823;;;;567378;249;24145;-78
2023/09/01 06:53:50;;;;;;;2.23;1.90;;;26.10;77.60;26.10;99818;;;;567370;249;23082;-77
2023/09/01 06:56:18;;;;;;;2.30;2.13;;;26.30;78.30;26.80;99825;;;;567806;249;23083;-77
2023/09/01 06:58:45;;;;;;;2.28;1.83;;;26.80;78.50;28.80;99824;;;;567880;249;24104;-80
2023/09/01 07:01:16;;;;;;;2.08;1.90;;;28.50;75.00;30.30;99822;;;;568044;249;23087;-80
2023/09/01 07:03:42;;;;;;;12.35;2.65;;;31.90;69.30;32.10;99826;;;;567681;249;24136;-78
2023/09/01 07:06:10;;;;;;;2.05;1.92;;;31.80;69.90;32.20;99824;;;;567406;249;24129;-78
2023/09/01 07:08:38;;;;;;;2.10;2.00;;;32.60;64.40;30.90;99821;;;;567823;249;23073;-78
2023/09/01 07:11:09;;;;;;;2.08;1.80;;;31.70;64.00;29.50;99828;;;;560872;251;23111;-77
2023/09/01 07:13:34;;;;;;;7.15;1.77;;;30.50;65.20;29.10;99825;;;;568909;252;23136;-77
2023/09/01 07:16:04;;;;;;;2.17;1.50;;;29.70;68.00;29.60;99826;;;;570535;252;25296;-77
2023/09/01 07:18:30;;;;;;;2.42;2.05;;;30.30;67.70;30.10;99823;;;;560507;252;23126;-78
2023/09/01 07:20:58;;;;;;;2.33;1.83;;;30.30;67.70;30.20;99819;;;;560306;252;23206;-77
2023/09/01 07:23:26;;;;;;;2.22;2.03;;;30.50;66.70;30.20;99826;;;;560081;252;23140;-78
2023/09/01 07:25:58;;;;;;;2.72;2.37;;;30.50;66.70;29.80;99822;;;;559618;252;23195;-80
2023/09/01 07:28:22;;;;;;;3.30;2.10;;;30.30;66.20;29.20;99826;;;;559764;250;24228;-76
2023/09/01 07:30:53;;;;;;;2.25;2.15;;;29.80;66.60;28.40;99821;;;;561093;251;23178;-77
2023/09/01 07:33:18;;;;;;;2.53;2.30;;;29.10;67.90;27.30;99829;;;;560606;252;23131;-80
2023/09/01 07:35:49;;;;;;;1.87;1.77;;;28.10;69.80;26.20;99828;;;;560516;252;23119;-77
2023/09/01 07:38:17;;;;;;;2.63;2.27;;;27.10;71.60;25.30;99829;;;;560815;252;25222;-77
2023/09/01 07:40:48;;;;;;;6.13;2.30;;;26.10;74.30;24.70;99826;;;;560725;252;23155;-77
2023/09/01 07:43:15;;;;;;;2.23;2.07;;;25.30;76.70;24.80;99829;;;;560464;252;23171;-78
2023/09/01 07:45:40;;;;;;;2.33;2.00;;;25.10;79.50;25.40;99827;;;;560622;252;23116;-78
2023/09/01 07:48:09;;;;;;;3.80;2.13;;;25.60;78.70;25.30;99831;;;;560485;252;23159;-77
2023/09/01 07:50:36;;;;;;;2.53;2.30;;;25.70;78.00;25.30;99838;;;;560446;252;24166;-77
2023/09/01 07:53:04;;;;;;;3.87;2.27;;;25.60;78.30;25.00;99834;;;;560466;252;23172;-77
2023/09/01 07:55:32;;;;;;;2.30;2.20;;;25.50;78.80;24.70;99836;;;;560508;252;23124;-77
2023/09/01 07:58:04;;;;;;;2.30;2.10;;;25.20;79.40;24.40;99837;;;;560177;252;24187;-76
2023/09/01 08:00:29;;;;;;;2.60;2.40;;;24.90;81.30;24.60;99829;;;;559471;252;23163;-77
2023/09/01 08:03:00;;;;;;;3.50;2.43;;;24.90;81.30;25.10;99841;;;;560137;252;23146;-78
2023/09/01 08:05:24;;;;;;;2.47;2.27;;;25.30;80.70;25.10;99840;;;;559661;252;23193;-78
2023/09/01 08:07:53;;;;;;;2.60;2.40;;;25.40;79.60;24.70;99843;;;;559960;252;23130;-77
2023/09/01 08:10:20;;;;;;;3.03;2.50;;;25.20;80.40;24.10;99841;;;;560041;252;24130;-78
2023/09/01 08:12:48;;;;;;;2.47;2.27;;;24.80;80.80;23.70;99847;;;;560183;252;24166;-77
2023/09/01 08:15:20;;;;;;;3.07;2.87;;;24.30;83.00;23.30;99846;;;;560126;252;23163;-78
2023/09/01 08:17:44;;;;;;;3.63;2.80;;;23.90;84.70;22.90;99857;;;;559818;252;23145;-80
2023/09/01 08:20:12;;;;;;;2.80;2.60;;;23.50;85.90;22.40;99846;;;;560287;252;24202;-80
2023/09/01 08:22:41;;;;;;;2.80;2.60;;;22.60;89.60;22.00;99849;;;;560199;252;24209;-78
2023/09/01 08:25:13;;;;;;;2.60;2.40;;;22.50;89.40;21.70;99852;;;;560122;252;24130;-77
2023/09/01 08:27:39;;;;;;;3.77;2.73;;;22.20;90.50;21.40;99853;;;;559448;252;24129;-80
2023/09/01 08:30:09;;;;;;;2.47;2.27;;;21.90;91.30;20.90;99859;;;;559638;252;24195;-78
2023/09/01 08:32:36;;;;;;;2.80;2.60;;;21.50;91.90;20.50;99861;;;;559295;252;24109;-76
2023/09/01 08:35:01;;;;;;;2.77;2.53;;;21.00;92.80;20.10;99855;;;;559443;252;24127;-78
2023/09/01 08:37:29;;;;;;;3.70;2.30;;;20.60;93.90;19.70;99859;;;;559706;252;24156;-76
2023/09/01 08:39:56;;;;;;;2.77;2.67;;;20.20;95.00;19.30;99853;;;;560492;250;24152;-78
2023/09/01 08:42:24;;;;;;;4.33;2.67;;;19.80;96.40;19.10;99853;;;;561700;251;24141;-77
2023/09/01 08:44:52;;;;;;;7.07;2.30;;;19.50;97.60;18.70;99843;;;;561193;252;23134;-77
2023/09/01 08:47:23;;;;;;;2.67;2.47;;;19.30;98.60;18.40;99855;;;;561156;252;23174;-77
2023/09/01 08:49:51;;;;;;;2.90;2.70;;;18.90;99.90;18.20;99850;;;;561269;252;23208;-79
2023/09/01 08:52:22;;;;;;;4.93;2.53;;;18.70;99.90;17.90;99857;;;;561551;252;24147;-81
2023/09/01 08:54:47;;;;;;;3.40;2.93;;;18.40;99.90;17.70;99854;;;;561350;252;24192;-77
2023/09/01 08:57:15;;;;;;;2.63;2.43;;;18.20;99.90;17.60;99858;;;;561970;251;23132;-77
2023/09/01 08:59:43;;;;;;;2.40;2.20;;;18.10;99.90;17.50;99854;;;;568729;249;24049;-76
2023/09/01 09:02:13;;;;;;;2.70;2.50;;;18.00;99.90;17.40;99859;;;;568809;249;24108;-78
2023/09/01 09:04:41;;;;;;;5.53;2.63;;;17.80;99.90;17.20;99859;;;;561140;252;24139;-77
2023/09/01 09:07:15;;;;;;;5.00;2.60;;;17.70;99.90;17.10;99856;;;;567930;249;24065;-77
2023/09/01 09:09:55;;;;;;;4.40;2.73;;;17.60;99.90;17.00;99840;;;;559058;252;24123;-79
2023/09/01 09:12:27;;;;;;;3.23;2.93;;;17.50;99.90;17.00;99850;;;;568814;251;24111;-77
2023/09/01 09:14:52;;;;;;;2.60;2.40;;;17.50;99.90;17.00;99847;;;;560315;252;24106;-77
2023/09/01 09:17:21;;;;;;;2.60;2.20;;;17.50;99.90;17.00;99849;;;;560683;252;24159;-79
2023/09/01 09:19:59;;;;;;;3.10;2.80;;;17.50;99.90;16.90;99850;;;;560634;252;23161;-76
2023/09/01 09:22:22;;;;;;;4.80;2.90;;;17.40;99.90;16.80;99853;;;;560199;252;24113;-77
2023/09/01 09:24:50;;;;;;;3.10;2.53;;;17.30;99.90;16.60;99863;;;;567527;249;24049;-79
2023/09/01 09:27:22;;;;;;;3.67;3.03;;;17.20;99.90;16.50;99862;;;;567737;249;24139;-80
2023/09/01 09:29:49;;;;;;;3.03;2.70;;;17.00;99.90;16.50;99861;;;;566932;249;24146;-77
2023/09/01 09:32:27;;;;;;;2.83;2.53;;;17.00;99.90;16.50;99870;;;;560232;252;24199;-76
2023/09/01 09:35:05;;;;;;;3.63;3.00;;;17.00;99.90;16.40;99866;;;;560357;252;24134;-78
2023/09/01 09:37:31;;;;;;;6.00;2.93;;;16.90;99.90;16.20;99872;;;;568555;252;24152;-78
2023/09/01 09:40:12;;;;;;;3.57;2.73;;;16.80;99.90;16.10;99878;;;;567321;249;24136;-77
2023/09/01 09:42:42;;;;;;;3.37;2.93;;;16.60;99.90;15.90;99872;;;;560645;252;24134;-77
2023/09/01 09:45:26;;;;;;;5.13;2.87;;;16.40;99.90;15.70;99872;;;;566901;249;24078;-76
2023/09/01 09:47:53;;;;;;;4.33;2.90;;;16.20;99.90;15.40;99880;;;;560737;252;24113;-78
2023/09/01 09:50:21;;;;;;;4.63;2.73;;;16.00;99.90;15.30;99875;;;;566950;249;24113;-76
2023/09/01 09:52:52;;;;;;;4.33;3.07;;;15.80;99.90;15.10;99874;;;;568793;248;24111;-77
2023/09/01 09:55:29;;;;;;;3.40;3.00;;;15.60;99.90;15.00;99879;;;;569544;251;24194;-77
2023/09/01 09:58:05;;;;;;;3.00;2.80;;;15.50;99.90;14.80;99875;;;;571689;251;24190;-77
2023/09/01 10:00:58;;;;;;;3.27;2.97;;;15.40;99.90;14.80;99874;;;;569869;251;24135;-77
2023/09/01 10:03:25;;;;;;;3.47;2.87;;;15.30;99.90;14.60;99872;;;;560091;251;24118;-77
2023/09/01 10:05:56;;;;;;;3.57;3.10;;;15.20;99.90;14.50;99881;;;;568138;248;24069;-77
2023/09/01 10:08:25;;;;;;;2.80;2.57;;;15.00;99.90;14.50;99885;;;;569900;251;24132;-81
2023/09/01 10:10:49;;;;;;;3.73;3.40;;;15.00;99.90;14.40;99889;;;;569362;252;24205;-82
2023/09/01 10:13:17;;;;;;;4.00;3.30;;;14.90;99.90;14.30;99883;;;;567967;249;24115;-83
2023/09/01 10:15:48;;;;;;;3.17;2.73;;;14.80;99.90;14.30;99888;;;;567916;249;24080;-82
2023/09/01 10:18:13;;;;;;;4.97;3.73;;;14.80;99.90;14.30;99888;;;;558456;252;24140;-82
2023/09/01 10:20:41;;;;;;;4.87;3.53;;;14.80;99.90;14.30;99883;;;;569173;252;24169;-76
2023/09/01 10:23:12;;;;;;;4.57;3.50;;;14.70;99.90;14.20;99892;;;;567609;249;24123;-81
2023/09/01 10:25:41;;;;;;;3.57;3.27;;;14.70;99.90;14.10;99887;;;;561012;252;24148;-82
2023/09/01 10:28:14;;;;;;;5.00;3.73;;;14.60;99.90;14.10;99882;;;;567920;249;24076;-81
2023/09/01 10:30:42;;;;;;;3.90;2.50;;;14.60;99.90;14.00;99887;;;;568210;249;24056;-81
2023/09/01 10:33:16;;;;;;;3.63;3.33;;;14.50;99.90;13.90;99891;;;;561438;252;24164;-80
2023/09/01 10:35:50;;;;;;;7.40;3.47;;;14.50;99.90;13.90;99886;;;;560910;252;24112;-77
2023/09/01 10:38:22;;;;;;;3.87;3.47;;;14.40;99.90;13.90;99878;;;;568215;249;24128;-78
2023/09/01 10:40:49;;;;;;;5.80;3.87;;;14.40;99.90;13.90;99884;;;;564741;252;24154;-77
2023/09/01 10:43:35;;;;;;;5.53;2.90;;;14.40;99.90;13.80;99890;;;;560785;252;24117;-77
2023/09/01 10:46:15;;;;;;;5.40;3.53;;;14.40;99.90;13.80;99893;;;;567826;249;24061;-78
2023/09/01 10:48:52;;;;;;;4.43;3.53;;;14.30;99.90;13.80;99892;;;;567974;249;24111;-77
2023/09/01 10:51:24;;;;;;;9.70;3.70;;;14.30;99.90;13.80;99889;;;;558954;252;24377;-76
2023/09/01 10:53:56;;;;;;;4.60;3.50;;;14.30;99.90;13.80;99896;;;;569442;251;24177;-77
2023/09/01 10:56:25;;;;;;;4.80;2.90;;;14.40;99.90;13.90;99900;;;;569576;251;24143;-77
2023/09/01 10:58:52;;;;;;;4.33;3.93;;;14.40;99.90;14.00;99891;;;;569856;251;24204;-79
2023/09/01 11:01:38;;;;;;;4.13;3.80;;;14.50;99.90;14.10;99896;;;;570211;252;24194;-79
2023/09/01 11:04:19;;;;;;;4.27;3.17;;;14.60;99.90;14.10;99887;;;;571143;248;24114;-82
2023/09/01 11:07:00;;;;;;;3.70;3.40;;;14.70;99.90;14.20;99889;;;;563030;251;24122;-82
2023/09/01 11:09:34;;;;;;;4.13;3.00;;;14.70;99.90;14.30;99883;;;;575464;248;24089;-81
2023/09/01 11:12:02;;;;;;;4.17;3.77;;;14.80;99.90;14.30;99888;;;;568948;248;24152;-79
2023/09/01 11:14:33;;;;;;;4.43;3.73;;;14.90;99.90;14.40;99883;;;;561227;251;24182;-82
2023/09/01 11:17:04;;;;;;;4.77;3.17;;;15.00;99.90;14.50;99892;;;;561248;251;24140;-81
2023/09/01 11:19:32;;;;;;;7.83;3.90;;;15.00;99.90;14.50;99883;;;;568037;248;24104;-81
2023/09/01 11:21:57;;;;;;;3.30;3.00;;;15.00;99.90;14.50;99881;;;;570860;247;24133;-82
2023/09/01 11:24:28;;;;;;;3.53;3.23;;;15.20;99.90;14.60;99873;;;;560200;252;24168;-81
2023/09/01 11:26:54;;;;;;;3.33;3.03;;;15.20;99.90;14.60;99874;;;;559984;252;24197;-82
2023/09/01 11:29:23;;;;;;;4.27;3.03;;;15.20;99.90;14.80;99878;;;;560652;252;24132;-83
2023/09/01 11:31:50;;;;;;;3.37;3.07;;;15.30;99.90;15.00;99870;;;;560564;252;24206;-82